Time;durP1;ratioP1;P1;durP2;ratioP2;P2;SDS_P1;SDS_P2;PMS_P1;PMS_P2;Temp;Humidity;BMP_temperature;BMP_pressure;BME280_temperature;BME280_humidity;BME280_pressure;Samples;Min_cycle;Max_cycle;Signal;HPM_P1;HPM_P2
2022/10/28 00:00:00;;;;;;;16.58;8.68;;;14.30;99.90;;;;;;5004786;28;20053;-68
2022/10/28 00:02:26;;;;;;;21.38;8.90;;;14.10;99.90;;;;;;5022503;28;20069;-69
2022/10/28 00:04:52;;;;;;;20.40;10.15;;;14.10;99.90;;;;;;5005315;28;22002;-68
2022/10/28 00:07:18;;;;;;;15.50;9.85;;;14.10;99.90;;;;;;5042553;28;20143;-69
2022/10/28 00:09:43;;;;;;;19.73;9.93;;;14.20;99.90;;;;;;5005677;28;20049;-68
2022/10/28 00:12:09;;;;;;;17.17;10.32;;;14.30;99.90;;;;;;5007341;28;20120;-68
2022/10/28 00:14:35;;;;;;;26.42;11.02;;;14.40;99.90;;;;;;5020615;28;20468;-68
2022/10/28 00:17:00;;;;;;;20.90;10.13;;;14.90;99.90;;;;;;4971841;28;20071;-67
2022/10/28 00:19:26;;;;;;;18.33;10.25;;;14.40;99.90;;;;;;5005268;28;20148;-68
2022/10/28 00:21:52;;;;;;;19.38;10.32;;;14.30;99.90;;;;;;4988833;28;20543;-68
2022/10/28 00:24:18;;;;;;;20.73;10.35;;;14.20;99.90;;;;;;5006270;28;20037;-68
2022/10/28 00:26:44;;;;;;;21.67;10.60;;;14.30;99.90;;;;;;5007082;28;20526;-68
2022/10/28 00:29:14;;;;;;;23.80;11.02;;;14.40;99.90;;;;;;4990559;28;20141;-69
2022/10/28 00:31:41;;;;;;;20.75;10.02;;;14.40;99.90;;;;;;5006781;28;20620;-68
2022/10/28 00:34:10;;;;;;;18.75;10.55;;;14.50;99.90;;;;;;5003454;28;20042;-68
2022/10/28 00:36:38;;;;;;;21.08;11.27;;;14.40;99.90;;;;;;5004231;28;20050;-68
2022/10/28 00:39:11;;;;;;;19.15;11.43;;;14.40;99.90;;;;;;4988922;28;20507;-68
2022/10/28 00:41:39;;;;;;;23.42;12.25;;;14.30;99.90;;;;;;5005268;28;20038;-68
2022/10/28 00:44:42;;;;;;;18.67;10.88;;;15.50;99.90;;;;;;5004483;28;20098;-68
2022/10/28 00:47:37;;;;;;;20.35;10.90;;;14.50;99.90;;;;;;5004423;28;20049;-68
2022/10/28 00:50:21;;;;;;;19.35;10.32;;;14.60;99.90;;;;;;4974090;28;20042;-68
2022/10/28 00:52:52;;;;;;;27.88;11.85;;;14.60;99.90;;;;;;5003424;28;20046;-68
2022/10/28 00:55:20;;;;;;;18.08;10.60;;;14.50;99.90;;;;;;5020164;28;20081;-68
2022/10/28 00:57:46;;;;;;;21.00;11.80;;;14.60;99.90;;;;;;4971874;28;20094;-68
2022/10/28 01:00:13;;;;;;;17.20;11.10;;;14.70;99.90;;;;;;5004391;28;20406;-68
2022/10/28 01:02:46;;;;;;;20.90;12.27;;;14.80;99.90;;;;;;5008369;28;20046;-68
2022/10/28 01:05:15;;;;;;;20.25;11.23;;;14.50;99.90;;;;;;5006406;28;20463;-68
2022/10/28 01:07:41;;;;;;;21.02;10.85;;;14.70;99.90;;;;;;4988166;28;20041;-68
2022/10/28 01:10:08;;;;;;;19.13;11.07;;;14.50;99.90;;;;;;5009406;28;20033;-68
2022/10/28 01:13:10;;;;;;;18.25;10.63;;;14.70;99.90;;;;;;4987419;28;20064;-68
2022/10/28 01:16:05;;;;;;;21.63;10.70;;;14.40;99.90;;;;;;4996352;28;20511;-68
2022/10/28 01:18:55;;;;;;;17.45;10.43;;;14.50;99.90;;;;;;5003443;28;20320;-68
2022/10/28 01:21:33;;;;;;;18.63;10.68;;;14.50;99.90;;;;;;4988476;28;20054;-68
2022/10/28 01:24:17;;;;;;;19.65;10.57;;;14.40;99.90;;;;;;5006232;28;20058;-68
2022/10/28 01:27:09;;;;;;;21.95;11.40;;;14.30;99.90;;;;;;5000743;28;20148;-68
2022/10/28 01:29:56;;;;;;;20.30;10.70;;;14.40;99.90;;;;;;5002610;28;20050;-69
2022/10/28 01:32:37;;;;;;;17.63;10.55;;;14.50;99.90;;;;;;5005885;28;20080;-69
2022/10/28 01:35:22;;;;;;;20.10;10.75;;;14.30;99.90;;;;;;5002329;28;20339;-69
2022/10/28 01:38:09;;;;;;;20.77;10.98;;;14.50;99.90;;;;;;5003536;28;20042;-68
2022/10/28 01:41:02;;;;;;;22.52;11.80;;;14.30;99.90;;;;;;5020698;28;20113;-69
2022/10/28 01:43:35;;;;;;;17.90;10.30;;;14.20;99.90;;;;;;5003686;28;20823;-69
2022/10/28 01:46:08;;;;;;;20.15;10.68;;;14.20;99.90;;;;;;5004877;28;20049;-69
2022/10/28 01:48:40;;;;;;;19.30;10.88;;;14.20;99.90;;;;;;5002634;28;20045;-69
2022/10/28 01:51:28;;;;;;;19.92;10.93;;;14.20;99.90;;;;;;5003082;28;20099;-68
2022/10/28 01:53:57;;;;;;;16.80;10.77;;;14.00;99.90;;;;;;4998908;28;20038;-68
2022/10/28 01:56:39;;;;;;;21.38;11.18;;;13.90;99.90;;;;;;5004205;28;20506;-68
2022/10/28 01:59:09;;;;;;;20.75;10.93;;;14.10;99.90;;;;;;4989710;28;20049;-67
2022/10/28 02:01:36;;;;;;;21.48;11.45;;;13.90;99.90;;;;;;4987935;28;20452;-68
2022/10/28 02:04:02;;;;;;;20.98;11.30;;;14.00;99.90;;;;;;5003660;28;20444;-68
2022/10/28 02:06:30;;;;;;;17.75;10.18;;;13.90;99.90;;;;;;5004841;28;20049;-68
2022/10/28 02:09:14;;;;;;;21.48;11.63;;;14.00;99.90;;;;;;5000654;28;20041;-67
2022/10/28 02:12:05;;;;;;;20.10;10.27;;;13.70;99.90;;;;;;5004099;28;20041;-67
2022/10/28 02:14:44;;;;;;;18.40;10.70;;;13.70;99.90;;;;;;4985415;28;20416;-67
2022/10/28 02:17:40;;;;;;;25.17;11.77;;;13.60;99.90;;;;;;5011703;28;20042;-68
2022/10/28 02:20:27;;;;;;;17.92;10.38;;;13.70;99.90;;;;;;4998637;28;20105;-68
2022/10/28 02:23:18;;;;;;;23.15;10.77;;;13.60;99.90;;;;;;5001852;28;20288;-68
2022/10/28 02:26:00;;;;;;;23.67;11.67;;;13.60;99.90;;;;;;4988181;28;20133;-68
2022/10/28 02:28:40;;;;;;;19.95;10.15;;;13.40;99.90;;;;;;4986536;28;20285;-67
2022/10/28 02:31:16;;;;;;;18.25;11.02;;;13.40;99.90;;;;;;5002636;28;20075;-67
2022/10/28 02:33:46;;;;;;;21.55;11.48;;;15.10;99.90;;;;;;5002440;28;20081;-67
2022/10/28 02:36:15;;;;;;;22.02;10.85;;;13.40;99.90;;;;;;5001609;28;20125;-68
2022/10/28 02:38:52;;;;;;;16.70;11.48;;;13.30;99.90;;;;;;5000654;28;20052;-68
2022/10/28 02:41:32;;;;;;;19.88;10.65;;;13.50;99.90;;;;;;5003247;28;20042;-67
2022/10/28 02:44:04;;;;;;;20.00;11.02;;;13.10;99.90;;;;;;4991058;28;20406;-67
2022/10/28 02:46:31;;;;;;;18.35;11.07;;;13.10;99.90;;;;;;4994539;28;20057;-68
2022/10/28 02:49:03;;;;;;;19.35;11.00;;;13.30;99.90;;;;;;4995759;28;20442;-68
2022/10/28 02:51:37;;;;;;;20.58;11.75;;;13.40;99.90;;;;;;4978334;28;20221;-68
2022/10/28 02:54:13;;;;;;;23.55;11.50;;;13.50;99.90;;;;;;4993810;28;20049;-68
2022/10/28 02:56:48;;;;;;;22.38;11.52;;;14.40;99.90;;;;;;5009231;28;20411;-68
2022/10/28 02:59:14;;;;;;;18.20;11.63;;;13.40;99.90;;;;;;5009593;28;20140;-68
2022/10/28 03:01:40;;;;;;;26.20;11.90;;;13.10;99.90;;;;;;5012860;28;20033;-67
2022/10/28 03:04:06;;;;;;;28.08;11.68;;;13.50;99.90;;;;;;5011761;28;20049;-66
2022/10/28 03:06:32;;;;;;;25.67;12.02;;;13.30;99.90;;;;;;5009437;28;20053;-67
2022/10/28 03:08:57;;;;;;;21.13;12.55;;;13.50;99.90;;;;;;5007676;28;20741;-66
2022/10/28 03:11:23;;;;;;;20.38;12.52;;;13.30;99.90;;;;;;5011072;27;20048;-67
2022/10/28 03:13:49;;;;;;;25.25;12.30;;;13.70;99.90;;;;;;5012502;27;20746;-67
2022/10/28 03:16:14;;;;;;;21.90;12.60;;;13.40;99.90;;;;;;4993630;28;20034;-67
2022/10/28 03:18:42;;;;;;;23.30;13.55;;;13.40;99.90;;;;;;4991579;28;20317;-68
2022/10/28 03:21:07;;;;;;;21.00;13.20;;;13.50;99.90;;;;;;5007585;28;20406;-68
2022/10/28 03:23:33;;;;;;;22.40;13.07;;;13.40;99.90;;;;;;5007900;28;20041;-68
2022/10/28 03:25:59;;;;;;;24.00;14.25;;;13.40;99.90;;;;;;5009050;28;20071;-67
2022/10/28 03:28:25;;;;;;;25.33;14.02;;;13.60;99.90;;;;;;5008605;28;20048;-68
2022/10/28 03:30:50;;;;;;;19.83;13.07;;;13.40;99.90;;;;;;5008543;28;20041;-68
2022/10/28 03:33:16;;;;;;;23.33;13.13;;;13.50;99.90;;;;;;4994264;28;20511;-67
2022/10/28 03:35:43;;;;;;;24.33;13.82;;;13.30;99.90;;;;;;5010219;28;20109;-67
2022/10/28 03:38:08;;;;;;;28.00;13.85;;;13.50;99.90;;;;;;5008676;28;20395;-67
2022/10/28 03:40:34;;;;;;;25.63;13.13;;;13.60;99.90;;;;;;5007353;28;20119;-68
2022/10/28 03:43:00;;;;;;;24.48;14.02;;;13.30;99.90;;;;;;5066064;28;20499;-67
2022/10/28 03:45:25;;;;;;;22.15;13.02;;;14.70;99.90;;;;;;4977134;28;20049;-67
2022/10/28 03:47:51;;;;;;;20.20;13.32;;;13.60;99.90;;;;;;5010946;28;20598;-68
2022/10/28 03:50:17;;;;;;;34.70;13.77;;;13.40;99.90;;;;;;5007796;28;20094;-68
2022/10/28 03:52:43;;;;;;;29.65;15.48;;;13.50;99.90;;;;;;4993525;28;20128;-67
2022/10/28 03:55:09;;;;;;;23.80;14.35;;;13.60;99.90;;;;;;5004566;28;20044;-67
2022/10/28 03:57:35;;;;;;;21.83;13.52;;;13.50;99.90;;;;;;5005163;28;20041;-66
2022/10/28 04:00:01;;;;;;;26.98;14.55;;;13.70;99.90;;;;;;5006567;28;20498;-67
2022/10/28 04:02:27;;;;;;;26.17;15.40;;;13.40;99.90;;;;;;4990605;28;20403;-66
2022/10/28 04:04:53;;;;;;;24.35;15.07;;;13.30;99.90;;;;;;5007549;28;20042;-67
2022/10/28 04:07:19;;;;;;;24.80;15.45;;;13.50;99.90;;;;;;4988897;28;20523;-66
2022/10/28 04:09:44;;;;;;;25.73;14.75;;;13.30;99.90;;;;;;5005129;28;20554;-66
2022/10/28 04:12:10;;;;;;;27.70;15.43;;;14.00;99.90;;;;;;5005579;28;20090;-66
2022/10/28 04:14:36;;;;;;;25.05;14.43;;;13.30;99.90;;;;;;5004293;28;20364;-66
2022/10/28 04:17:02;;;;;;;34.22;16.55;;;13.30;99.90;;;;;;5006471;28;20049;-66
2022/10/28 04:19:28;;;;;;;23.85;15.18;;;13.20;99.90;;;;;;4991313;28;20056;-66
2022/10/28 04:21:53;;;;;;;24.13;13.60;;;13.30;99.90;;;;;;5003299;28;20120;-66
2022/10/28 04:24:19;;;;;;;26.45;14.85;;;13.10;99.90;;;;;;4989376;28;20045;-66
2022/10/28 04:26:45;;;;;;;21.90;13.07;;;13.80;99.90;;;;;;5007647;28;20037;-66
2022/10/28 04:29:10;;;;;;;23.90;14.10;;;13.00;99.90;;;;;;4999811;28;20037;-66
2022/10/28 04:31:36;;;;;;;21.13;14.57;;;15.20;99.90;;;;;;4989305;28;25448;-65
2022/10/28 04:34:01;;;;;;;23.98;14.40;;;13.70;99.90;;;;;;5006664;28;20384;-66
2022/10/28 04:36:27;;;;;;;22.42;14.13;;;13.00;99.90;;;;;;5004392;28;20050;-66
2022/10/28 04:38:53;;;;;;;24.33;15.27;;;13.10;99.90;;;;;;5006850;28;20094;-66
2022/10/28 04:41:19;;;;;;;25.65;14.40;;;12.90;99.90;;;;;;5022861;28;20503;-66
2022/10/28 04:43:44;;;;;;;34.00;16.10;;;13.00;99.90;;;;;;5007931;28;20082;-65
2022/10/28 04:46:10;;;;;;;30.48;16.75;;;13.00;99.90;;;;;;4990158;28;20060;-65
2022/10/28 04:48:36;;;;;;;32.60;17.48;;;12.00;99.90;;;;;;5017876;28;20041;-65
2022/10/28 04:51:02;;;;;;;30.50;17.88;;;12.90;99.90;;;;;;5004603;28;20045;-64
2022/10/28 04:53:28;;;;;;;29.00;18.05;;;12.90;99.90;;;;;;4999737;28;20535;-65
2022/10/28 04:55:59;;;;;;;31.50;17.77;;;13.10;99.90;;;;;;5004101;28;20045;-65
2022/10/28 04:58:26;;;;;;;31.23;18.92;;;12.80;99.90;;;;;;5003897;28;20037;-64
2022/10/28 05:00:51;;;;;;;42.38;18.70;;;13.00;99.90;;;;;;5006696;28;20136;-64
2022/10/28 05:03:17;;;;;;;40.65;20.83;;;13.00;99.90;;;;;;5007584;28;20041;-64
2022/10/28 05:05:43;;;;;;;33.17;18.42;;;12.90;99.90;;;;;;5006250;28;20491;-64
2022/10/28 05:08:08;;;;;;;29.38;18.38;;;14.10;99.90;;;;;;5006947;28;20037;-65
2022/10/28 05:10:34;;;;;;;33.85;19.17;;;13.00;99.90;;;;;;5008074;28;20156;-65
2022/10/28 05:13:00;;;;;;;32.20;18.98;;;12.80;99.90;;;;;;5006598;28;20088;-65
2022/10/28 05:15:25;;;;;;;40.25;19.90;;;12.90;99.90;;;;;;4974338;28;20076;-64
2022/10/28 05:17:51;;;;;;;36.47;19.80;;;12.80;99.90;;;;;;5005627;28;20094;-64
2022/10/28 05:20:18;;;;;;;34.70;19.33;;;12.90;99.90;;;;;;5003834;28;20042;-65
2022/10/28 05:22:49;;;;;;;40.08;22.20;;;12.80;99.90;;;;;;5000625;28;20038;-64
2022/10/28 05:25:16;;;;;;;35.53;19.92;;;12.60;99.90;;;;;;4988483;28;20044;-65
2022/10/28 05:27:42;;;;;;;34.50;19.05;;;13.00;99.90;;;;;;5007604;28;20046;-64
2022/10/28 05:30:09;;;;;;;38.15;18.92;;;12.90;99.90;;;;;;5005201;28;20567;-65
2022/10/28 05:32:35;;;;;;;34.83;19.70;;;12.90;99.90;;;;;;5008373;28;20072;-64
2022/10/28 05:35:01;;;;;;;32.80;19.60;;;13.00;99.90;;;;;;5021280;28;20041;-64
2022/10/28 05:37:26;;;;;;;31.63;19.88;;;13.00;99.90;;;;;;5008395;28;20056;-65
2022/10/28 05:39:52;;;;;;;33.67;18.98;;;12.80;99.90;;;;;;5018415;28;20045;-64
2022/10/28 05:42:18;;;;;;;34.38;19.48;;;13.60;99.90;;;;;;5004474;28;20041;-64
2022/10/28 05:44:44;;;;;;;36.28;20.70;;;13.20;99.90;;;;;;5006049;28;20038;-64
2022/10/28 05:47:09;;;;;;;36.97;19.80;;;12.90;99.90;;;;;;5006057;28;20452;-64
2022/10/28 05:49:35;;;;;;;33.53;20.27;;;13.50;99.90;;;;;;5008528;28;20043;-64
2022/10/28 05:52:01;;;;;;;29.60;18.35;;;12.90;99.90;;;;;;5002473;28;20045;-63
2022/10/28 05:54:27;;;;;;;32.42;18.80;;;12.70;99.90;;;;;;5004405;28;20495;-64
2022/10/28 05:56:52;;;;;;;36.95;18.88;;;12.70;99.90;;;;;;5003924;28;20041;-64
2022/10/28 05:59:18;;;;;;;36.15;19.73;;;13.00;99.90;;;;;;5005128;28;20046;-65
2022/10/28 06:01:44;;;;;;;33.90;18.98;;;12.90;99.90;;;;;;5002005;28;20041;-64
2022/10/28 06:04:10;;;;;;;41.17;19.77;;;12.60;99.90;;;;;;5005342;28;20654;-65
2022/10/28 06:06:35;;;;;;;33.30;18.35;;;12.70;99.90;;;;;;5008826;28;20165;-64
2022/10/28 06:09:01;;;;;;;34.60;19.83;;;12.70;99.90;;;;;;5005451;28;20048;-65
2022/10/28 06:11:27;;;;;;;36.33;19.98;;;12.90;99.90;;;;;;5003270;28;20049;-64
2022/10/28 06:13:53;;;;;;;42.15;20.00;;;12.70;99.90;;;;;;5004900;28;20403;-64
2022/10/28 06:16:18;;;;;;;39.45;20.38;;;15.00;99.90;;;;;;5001380;28;20097;-64
2022/10/28 06:18:44;;;;;;;31.92;18.50;;;12.70;99.90;;;;;;4981570;28;20511;-65
2022/10/28 06:21:10;;;;;;;42.42;21.00;;;12.80;99.90;;;;;;5000680;28;20425;-65
2022/10/28 06:23:35;;;;;;;35.97;19.67;;;14.40;99.90;;;;;;5002086;28;20034;-64
2022/10/28 06:26:03;;;;;;;33.22;18.45;;;12.80;99.90;;;;;;5003746;28;20034;-64
2022/10/28 06:28:29;;;;;;;34.33;18.70;;;13.10;99.90;;;;;;5002763;28;20054;-64
2022/10/28 06:31:07;;;;;;;32.80;18.52;;;12.80;99.90;;;;;;5003389;28;20044;-64
2022/10/28 06:33:33;;;;;;;27.92;17.90;;;13.90;99.90;;;;;;4973721;28;20044;-64
2022/10/28 06:35:59;;;;;;;35.42;19.23;;;12.90;99.90;;;;;;5004470;28;20102;-64
2022/10/28 06:38:26;;;;;;;32.53;17.38;;;12.80;99.90;;;;;;5000889;28;20038;-64
2022/10/28 06:40:52;;;;;;;33.10;17.92;;;12.70;99.90;;;;;;5003686;28;20122;-63
2022/10/28 06:43:18;;;;;;;28.77;17.23;;;12.70;99.90;;;;;;5004775;28;20527;-64
2022/10/28 06:45:47;;;;;;;32.70;17.70;;;14.50;99.90;;;;;;5000065;28;20076;-64
2022/10/28 06:48:13;;;;;;;36.22;17.60;;;12.90;99.90;;;;;;5021218;28;20491;-64
2022/10/28 06:50:39;;;;;;;31.92;17.38;;;12.90;99.90;;;;;;5001586;28;20048;-64
2022/10/28 06:53:04;;;;;;;26.75;16.98;;;12.80;99.90;;;;;;5004288;28;20196;-64
2022/10/28 06:55:30;;;;;;;28.98;16.85;;;12.90;99.90;;;;;;5002865;28;20580;-65
2022/10/28 06:58:00;;;;;;;35.92;16.88;;;12.80;99.90;;;;;;5000092;28;20041;-64
2022/10/28 07:00:27;;;;;;;35.97;16.98;;;12.90;99.90;;;;;;5001899;28;20034;-64
2022/10/28 07:02:53;;;;;;;26.52;16.00;;;13.10;99.90;;;;;;5002456;28;20045;-64
2022/10/28 07:05:20;;;;;;;30.58;16.27;;;13.00;99.90;;;;;;5004717;28;20797;-64
2022/10/28 07:07:45;;;;;;;27.33;16.25;;;13.10;99.90;;;;;;5002310;28;20503;-63
2022/10/28 07:10:11;;;;;;;33.03;16.90;;;13.00;99.90;;;;;;5005080;28;20041;-65
2022/10/28 07:12:37;;;;;;;27.45;15.98;;;13.00;99.90;;;;;;5003393;28;20046;-66
2022/10/28 07:15:03;;;;;;;27.45;15.00;;;13.20;99.90;;;;;;5001104;28;20033;-66
2022/10/28 07:17:29;;;;;;;27.38;16.27;;;13.20;99.90;;;;;;5003999;28;20828;-65
2022/10/28 07:19:55;;;;;;;33.33;15.27;;;13.40;99.90;;;;;;4989233;28;20042;-66
2022/10/28 07:22:20;;;;;;;36.47;14.88;;;13.40;99.90;;;;;;5007440;28;20041;-66
2022/10/28 07:24:46;;;;;;;22.48;13.45;;;13.50;99.90;;;;;;5017355;28;20225;-65
2022/10/28 07:27:12;;;;;;;24.67;14.23;;;13.60;99.90;;;;;;5005869;28;20056;-66
2022/10/28 07:29:38;;;;;;;18.77;13.20;;;13.70;99.90;;;;;;5005684;28;20038;-66
2022/10/28 07:32:04;;;;;;;24.90;12.07;;;13.80;99.90;;;;;;5008978;28;20042;-66
2022/10/28 07:34:29;;;;;;;20.67;11.75;;;14.00;99.90;;;;;;5007942;28;20038;-66
2022/10/28 07:36:55;;;;;;;18.20;11.35;;;14.20;99.90;;;;;;5006629;28;20165;-66
2022/10/28 07:39:22;;;;;;;27.35;11.73;;;14.30;99.90;;;;;;4991147;28;20042;-66
2022/10/28 07:41:47;;;;;;;18.33;10.75;;;14.50;99.90;;;;;;4990224;28;20188;-66
2022/10/28 07:44:13;;;;;;;23.35;9.98;;;14.80;99.90;;;;;;5007592;28;20034;-66
2022/10/28 07:46:40;;;;;;;21.35;9.82;;;14.90;99.90;;;;;;5023649;28;20253;-66
2022/10/28 07:49:05;;;;;;;20.83;9.55;;;15.20;99.90;;;;;;5087868;27;20034;-66
2022/10/28 07:51:32;;;;;;;22.13;9.27;;;15.20;99.90;;;;;;5006449;28;20071;-65
2022/10/28 07:53:58;;;;;;;18.38;8.57;;;15.30;99.90;;;;;;5008495;28;20503;-66
2022/10/28 07:56:24;;;;;;;20.15;8.20;;;15.30;99.90;;;;;;5005267;28;20037;-66
2022/10/28 07:58:49;;;;;;;21.55;8.60;;;15.50;99.90;;;;;;5005091;28;20058;-67
2022/10/28 08:01:17;;;;;;;18.25;8.38;;;15.50;99.90;;;;;;5005620;28;20048;-66
2022/10/28 08:03:43;;;;;;;21.38;7.78;;;15.60;99.90;;;;;;5007476;28;20041;-66
2022/10/28 08:06:18;;;;;;;18.20;7.65;;;15.60;99.90;;;;;;5006760;28;20041;-66
2022/10/28 08:08:45;;;;;;;20.42;8.05;;;15.60;99.90;;;;;;5006713;28;20456;-66
2022/10/28 08:11:13;;;;;;;19.25;7.93;;;15.70;99.90;;;;;;5004269;28;20055;-66
2022/10/28 08:13:39;;;;;;;18.55;7.75;;;15.60;99.90;;;;;;5007232;28;20184;-66
2022/10/28 08:16:05;;;;;;;18.05;7.75;;;15.70;99.90;;;;;;5004157;28;20560;-66
2022/10/28 08:18:31;;;;;;;21.33;7.68;;;15.70;99.90;;;;;;5005508;28;20045;-67
2022/10/28 08:21:01;;;;;;;18.77;7.95;;;15.70;99.90;;;;;;5009813;28;20402;-67
2022/10/28 08:23:27;;;;;;;17.33;7.47;;;15.90;99.90;;;;;;5008668;28;20049;-67
2022/10/28 08:25:54;;;;;;;14.45;7.53;;;15.80;99.90;;;;;;5009811;28;20980;-66
2022/10/28 08:28:20;;;;;;;20.48;7.40;;;16.00;99.90;;;;;;5007152;28;20054;-66
2022/10/28 08:30:46;;;;;;;19.98;8.07;;;16.00;99.90;;;;;;5005753;28;20033;-68
2022/10/28 08:33:13;;;;;;;21.50;7.47;;;16.20;99.90;;;;;;5007132;28;20050;-67
2022/10/28 08:35:39;;;;;;;19.55;6.97;;;14.80;99.90;;;;;;5006098;28;20504;-67
2022/10/28 08:38:05;;;;;;;21.25;7.18;;;16.30;99.90;;;;;;5008756;28;20492;-67
2022/10/28 08:40:42;;;;;;;18.45;7.07;;;16.50;99.90;;;;;;5007085;28;20062;-67
2022/10/28 08:43:22;;;;;;;19.95;6.93;;;16.40;99.90;;;;;;5007294;28;20035;-67
2022/10/28 08:46:10;;;;;;;19.83;7.32;;;16.50;99.90;;;;;;5006023;28;20045;-66
2022/10/28 08:48:36;;;;;;;15.70;6.78;;;16.70;99.90;;;;;;5005679;28;20081;-68
2022/10/28 08:51:14;;;;;;;11.23;6.55;;;16.60;99.90;;;;;;5004478;28;20068;-68
2022/10/28 08:53:52;;;;;;;20.90;6.90;;;16.60;99.90;;;;;;4985919;28;20136;-68
2022/10/28 08:56:38;;;;;;;14.80;6.45;;;16.50;99.90;;;;;;5003809;28;20041;-68
2022/10/28 08:59:06;;;;;;;17.05;6.75;;;16.60;99.90;;;;;;5005258;28;20038;-68
2022/10/28 09:01:44;;;;;;;14.52;7.15;;;16.60;99.90;;;;;;5005067;28;20562;-68
2022/10/28 09:04:18;;;;;;;14.32;6.68;;;16.40;99.90;;;;;;5002740;28;20145;-68
2022/10/28 09:06:44;;;;;;;18.33;6.65;;;16.50;99.90;;;;;;5005561;28;20045;-69
2022/10/28 09:09:22;;;;;;;13.00;5.60;;;16.80;99.90;;;;;;5005775;28;20525;-69
2022/10/28 09:12:08;;;;;;;16.63;6.65;;;16.40;99.90;;;;;;5004769;28;21195;-69
2022/10/28 09:15:01;;;;;;;14.48;6.38;;;16.50;99.90;;;;;;5007867;28;20616;-70
2022/10/28 09:17:45;;;;;;;13.68;7.07;;;16.50;99.90;;;;;;5002410;28;20041;-69
2022/10/28 09:20:18;;;;;;;17.40;6.88;;;16.70;99.90;;;;;;5004154;28;20049;-68
2022/10/28 09:22:57;;;;;;;15.50;6.55;;;16.70;99.90;;;;;;5015930;28;20046;-69
2022/10/28 09:25:41;;;;;;;15.55;6.88;;;16.60;99.90;;;;;;5006199;28;20651;-69
2022/10/28 09:28:18;;;;;;;20.13;6.50;;;16.60;99.90;;;;;;5001688;28;20254;-69
2022/10/28 09:30:44;;;;;;;22.75;6.72;;;16.70;99.90;;;;;;5003722;28;20042;-62
2022/10/28 09:33:39;;;;;;;19.52;6.95;;;16.60;99.90;;;;;;5003921;28;20061;-61
2022/10/28 09:36:13;;;;;;;15.40;5.78;;;16.50;99.90;;;;;;5006752;28;20056;-61
2022/10/28 09:38:39;;;;;;;21.88;6.25;;;16.50;99.90;;;;;;5004175;28;20571;-61
2022/10/28 09:41:23;;;;;;;19.00;6.68;;;16.60;99.90;;;;;;5006630;28;20041;-68
2022/10/28 09:43:52;;;;;;;16.52;6.60;;;16.50;99.90;;;;;;4990783;28;20030;-61
2022/10/28 09:46:19;;;;;;;14.98;5.90;;;16.70;99.90;;;;;;5007393;28;20054;-63
2022/10/28 09:48:50;;;;;;;14.30;6.18;;;16.60;99.90;;;;;;5005025;28;20053;-65
2022/10/28 09:51:32;;;;;;;15.18;6.47;;;16.60;99.90;;;;;;5005898;28;20052;-64
2022/10/28 09:53:59;;;;;;;19.27;6.50;;;16.80;99.90;;;;;;5002714;28;20050;-65
2022/10/28 09:56:26;;;;;;;19.73;6.63;;;16.90;99.90;;;;;;5004493;28;20056;-64
2022/10/28 09:58:54;;;;;;;20.73;6.38;;;16.80;99.90;;;;;;5000116;28;20085;-64
2022/10/28 10:01:20;;;;;;;14.68;5.93;;;16.90;99.90;;;;;;5003779;28;20139;-64
2022/10/28 10:03:50;;;;;;;14.43;5.90;;;17.00;99.90;;;;;;5002342;28;20045;-65
2022/10/28 10:06:22;;;;;;;18.73;6.80;;;16.90;99.90;;;;;;5006371;28;20181;-65
2022/10/28 10:08:48;;;;;;;14.15;5.75;;;16.90;99.90;;;;;;5005267;28;20531;-65
2022/10/28 10:11:35;;;;;;;15.00;6.00;;;16.90;99.90;;;;;;5003403;28;20098;-65
2022/10/28 10:14:06;;;;;;;14.48;5.97;;;17.00;99.90;;;;;;5003380;28;20056;-64
2022/10/28 10:16:38;;;;;;;17.55;5.97;;;17.30;99.90;;;;;;5001801;28;20264;-65
2022/10/28 10:19:07;;;;;;;16.15;5.85;;;17.40;99.90;;;;;;5006178;28;20045;-65
2022/10/28 10:21:43;;;;;;;18.75;5.65;;;17.40;99.90;;;;;;5001999;28;20049;-64
2022/10/28 10:24:33;;;;;;;12.20;5.15;;;17.50;99.90;;;;;;5004412;28;20045;-65
2022/10/28 10:27:03;;;;;;;15.45;5.53;;;17.40;99.70;;;;;;5008303;28;20045;-64
2022/10/28 10:29:29;;;;;;;18.67;5.60;;;17.50;99.90;;;;;;5003782;28;21061;-64
2022/10/28 10:32:18;;;;;;;15.45;6.45;;;17.60;99.90;;;;;;5004739;28;20146;-64
2022/10/28 10:35:05;;;;;;;15.82;5.90;;;17.60;99.90;;;;;;5002957;28;20106;-65
2022/10/28 10:37:34;;;;;;;15.38;6.72;;;17.60;98.80;;;;;;5004039;28;20053;-65
2022/10/28 10:40:32;;;;;;;13.15;5.28;;;17.80;99.90;;;;;;5002812;28;20068;-63
2022/10/28 10:43:22;;;;;;;16.73;6.13;;;17.80;97.70;;;;;;5003184;28;20483;-64
2022/10/28 10:45:57;;;;;;;16.35;6.38;;;18.00;97.50;;;;;;5003907;28;20883;-65
2022/10/28 10:48:23;;;;;;;16.80;6.00;;;17.90;98.00;;;;;;5003499;28;20486;-64
2022/10/28 10:50:50;;;;;;;18.45;5.60;;;18.10;98.30;;;;;;5002574;28;20140;-64
2022/10/28 10:53:27;;;;;;;14.05;5.93;;;18.00;96.60;;;;;;5005424;28;20132;-64
2022/10/28 10:56:07;;;;;;;17.70;5.75;;;18.30;95.10;;;;;;5005383;28;20052;-65
2022/10/28 10:59:01;;;;;;;18.10;5.93;;;18.40;96.30;;;;;;5004459;28;20088;-61
2022/10/28 11:01:32;;;;;;;13.88;5.20;;;18.10;95.70;;;;;;5003316;28;20065;-61
2022/10/28 11:04:02;;;;;;;23.60;6.57;;;18.30;96.10;;;;;;5002659;28;20882;-61
2022/10/28 11:06:36;;;;;;;17.90;5.00;;;18.40;97.40;;;;;;5008729;28;20041;-62
2022/10/28 11:09:05;;;;;;;17.35;5.82;;;18.50;96.90;;;;;;5005604;28;20494;-62
2022/10/28 11:11:40;;;;;;;17.67;5.95;;;18.60;95.50;;;;;;5009101;28;20050;-62
2022/10/28 11:14:08;;;;;;;19.80;5.93;;;18.60;95.70;;;;;;5006901;28;20052;-62
2022/10/28 11:16:50;;;;;;;15.23;5.47;;;18.80;94.20;;;;;;5005168;28;20047;-63
2022/10/28 11:19:36;;;;;;;18.50;5.72;;;18.80;92.40;;;;;;5008381;28;20056;-63
2022/10/28 11:22:04;;;;;;;19.30;6.25;;;18.90;93.00;;;;;;5006516;28;20045;-63
2022/10/28 11:24:45;;;;;;;14.55;5.85;;;18.90;91.50;;;;;;5006555;28;20261;-63
2022/10/28 11:27:42;;;;;;;15.88;5.10;;;19.10;87.60;;;;;;5009235;28;20041;-63
2022/10/28 11:30:15;;;;;;;13.02;5.03;;;19.20;71.10;;;;;;5004277;28;20046;-62
2022/10/28 11:33:04;;;;;;;14.73;5.50;;;19.10;77.30;;;;;;5005986;28;20542;-63
2022/10/28 11:36:06;;;;;;;20.20;6.40;;;19.10;82.20;;;;;;5008178;28;20051;-63
2022/10/28 11:38:44;;;;;;;16.47;5.93;;;17.40;79.70;;;;;;5003652;28;20369;-63
2022/10/28 11:41:31;;;;;;;13.20;5.00;;;19.20;85.00;;;;;;5000422;28;20041;-63
2022/10/28 11:43:58;;;;;;;13.90;5.13;;;19.20;82.20;;;;;;5003931;28;20052;-63
2022/10/28 11:47:14;;;;;;;14.68;5.10;;;19.30;84.40;;;;;;5006281;28;20591;-63
2022/10/28 11:49:43;;;;;;;14.48;5.35;;;19.40;70.00;;;;;;5033443;28;20050;-63
2022/10/28 11:52:38;;;;;;;18.25;5.30;;;19.60;77.80;;;;;;5003119;28;20850;-63
2022/10/28 11:55:04;;;;;;;16.02;5.65;;;19.40;83.60;;;;;;5005512;28;20033;-63
2022/10/28 11:57:48;;;;;;;14.20;4.93;;;19.60;79.40;;;;;;5004297;28;20052;-63
2022/10/28 12:00:35;;;;;;;12.35;4.78;;;20.00;70.00;;;;;;5007565;28;20530;-64
2022/10/28 12:03:14;;;;;;;15.65;4.88;;;19.70;68.30;;;;;;5005235;28;20094;-63
2022/10/28 12:05:40;;;;;;;15.20;4.88;;;19.50;57.70;;;;;;5001035;28;20038;-63
2022/10/28 12:08:40;;;;;;;15.05;4.70;;;19.40;64.40;;;;;;5007330;28;20054;-63
2022/10/28 12:11:12;;;;;;;16.75;5.43;;;19.40;53.00;;;;;;5008918;28;20590;-63
2022/10/28 12:13:57;;;;;;;13.82;4.43;;;19.50;58.80;;;;;;5003499;28;20375;-63
2022/10/28 12:16:42;;;;;;;13.50;5.43;;;19.50;63.50;;;;;;5002475;28;20050;-63
2022/10/28 12:19:16;;;;;;;15.82;5.45;;;19.40;63.60;;;;;;5008653;28;20037;-64
2022/10/28 12:22:00;;;;;;;13.75;4.72;;;19.30;73.50;;;;;;5001787;28;21264;-64
2022/10/28 12:24:27;;;;;;;22.00;5.20;;;19.30;69.80;;;;;;5000693;28;20191;-63
2022/10/28 12:26:59;;;;;;;19.90;5.97;;;19.10;75.70;;;;;;4997694;28;20872;-64
2022/10/28 12:29:28;;;;;;;17.50;5.25;;;19.20;80.80;;;;;;5001642;28;20046;-64
2022/10/28 12:32:19;;;;;;;16.05;5.25;;;19.00;84.60;;;;;;5003317;28;20395;-63
2022/10/28 12:34:50;;;;;;;19.92;5.28;;;19.10;82.30;;;;;;5004883;28;20666;-64
2022/10/28 12:37:33;;;;;;;16.67;5.13;;;19.10;84.90;;;;;;5005051;28;20450;-63
2022/10/28 12:40:20;;;;;;;15.20;5.10;;;19.10;82.50;;;;;;4997498;28;20110;-64
2022/10/28 12:43:04;;;;;;;17.15;5.97;;;19.00;84.30;;;;;;4998692;28;20664;-65
2022/10/28 12:45:31;;;;;;;24.63;6.03;;;19.10;83.30;;;;;;5006662;28;20059;-65
2022/10/28 12:48:12;;;;;;;16.17;5.47;;;19.00;84.60;;;;;;5003919;28;20041;-65
2022/10/28 12:50:46;;;;;;;15.38;5.25;;;19.10;84.30;;;;;;4996346;28;21857;-65
2022/10/28 12:53:38;;;;;;;15.52;5.70;;;18.90;87.60;;;;;;4997752;28;20073;-66